Time;durP1;ratioP1;P1;durP2;ratioP2;P2;SDS_P1;SDS_P2;PMS_P1;PMS_P2;Temp;Humidity;BMP_temperature;BMP_pressure;BME280_temperature;BME280_humidity;BME280_pressure;Samples;Min_cycle;Max_cycle;Signal;HPM_P1;HPM_P2
2022/03/15 00:01:16;;;;;;;4.97;0.90;;;27.00;99.90;;;;;;4918921;29;20705;-67
2022/03/15 00:03:44;;;;;;;4.57;0.70;;;26.90;99.90;;;;;;4918421;29;20234;-67
2022/03/15 00:06:12;;;;;;;3.37;0.83;;;27.00;99.90;;;;;;4918945;29;20177;-66
2022/03/15 00:08:40;;;;;;;5.67;0.90;;;26.70;99.90;;;;;;4918821;29;20213;-67
2022/03/15 00:11:09;;;;;;;5.50;0.60;;;26.80;99.90;;;;;;4918967;29;20944;-67
2022/03/15 00:13:38;;;;;;;3.03;0.80;;;26.70;99.90;;;;;;4918338;29;20678;-67
2022/03/15 00:16:08;;;;;;;4.50;1.00;;;26.90;99.90;;;;;;4918416;29;20681;-67
2022/03/15 00:18:37;;;;;;;2.93;0.70;;;27.40;99.90;;;;;;4918615;29;20240;-67
2022/03/15 00:21:10;;;;;;;3.40;0.67;;;27.50;99.90;;;;;;4918157;29;20192;-67
2022/03/15 00:23:38;;;;;;;5.93;0.90;;;27.80;99.90;;;;;;4917028;29;20605;-67
2022/03/15 00:26:07;;;;;;;4.07;0.70;;;28.00;99.90;;;;;;4918242;29;20177;-67
2022/03/15 00:28:36;;;;;;;4.83;1.00;;;27.80;99.90;;;;;;4918282;29;20217;-67
2022/03/15 00:31:04;;;;;;;4.93;0.90;;;28.10;99.90;;;;;;4918560;29;20208;-67
2022/03/15 00:33:32;;;;;;;3.97;0.63;;;27.60;99.90;;;;;;4917507;29;20185;-67
2022/03/15 00:36:00;;;;;;;3.60;0.70;;;27.30;99.90;;;;;;4916919;29;20672;-67
2022/03/15 00:38:28;;;;;;;3.23;0.97;;;27.80;99.90;;;;;;4917906;29;20666;-67
2022/03/15 00:40:56;;;;;;;6.33;1.00;;;28.30;99.90;;;;;;4918402;29;20229;-68
2022/03/15 00:43:24;;;;;;;3.40;0.60;;;28.40;99.90;;;;;;4918380;29;20738;-68
2022/03/15 00:45:51;;;;;;;5.80;0.87;;;28.80;99.90;;;;;;4918114;29;20182;-67
2022/03/15 00:48:19;;;;;;;4.17;0.50;;;28.70;99.90;;;;;;4917888;29;20352;-67
2022/03/15 00:50:47;;;;;;;2.73;0.70;;;28.80;99.90;;;;;;4918173;29;20181;-67
2022/03/15 00:53:15;;;;;;;2.17;0.40;;;28.00;99.90;;;;;;4918092;29;20657;-66
2022/03/15 00:55:43;;;;;;;4.67;0.97;;;28.10;99.90;;;;;;4917755;29;20757;-67
2022/03/15 00:58:11;;;;;;;1.20;0.50;;;28.30;99.90;;;;;;4915337;29;20196;-67
2022/03/15 01:00:39;;;;;;;2.50;0.60;;;28.70;99.90;;;;;;4917855;29;20182;-67
2022/03/15 01:03:07;;;;;;;4.93;0.80;;;28.70;99.90;;;;;;4918970;29;20192;-67
2022/03/15 01:05:35;;;;;;;5.23;0.60;;;29.00;99.90;;;;;;4918779;29;20272;-67
2022/03/15 01:08:02;;;;;;;3.40;0.60;;;28.90;99.90;;;;;;4918824;29;20224;-67
2022/03/15 01:10:30;;;;;;;3.97;0.90;;;28.60;99.90;;;;;;4918816;29;20189;-68
2022/03/15 01:12:58;;;;;;;3.30;0.90;;;28.80;99.90;;;;;;4918145;29;20197;-65
2022/03/15 01:15:26;;;;;;;4.87;0.70;;;28.30;99.90;;;;;;4919987;29;20268;-67
2022/03/15 01:17:53;;;;;;;5.70;1.20;;;28.20;99.90;;;;;;4919059;29;20740;-67
2022/03/15 01:20:22;;;;;;;8.47;0.83;;;28.20;99.90;;;;;;4917983;29;20662;-68
2022/03/15 01:22:50;;;;;;;4.10;0.77;;;28.60;99.90;;;;;;4917448;29;20250;-67
2022/03/15 01:25:17;;;;;;;2.47;0.80;;;28.50;99.90;;;;;;4917647;29;20181;-68
2022/03/15 01:27:45;;;;;;;4.90;0.70;;;28.90;99.90;;;;;;4917569;29;20217;-67
2022/03/15 01:30:13;;;;;;;4.23;1.10;;;28.60;99.90;;;;;;4917470;29;20233;-67
2022/03/15 01:32:40;;;;;;;3.10;0.90;;;27.90;99.90;;;;;;4917409;29;20265;-66
2022/03/15 01:35:08;;;;;;;4.30;0.80;;;26.70;99.90;;;;;;4917370;29;20178;-67
2022/03/15 01:37:36;;;;;;;3.03;0.97;;;27.10;99.90;;;;;;4917337;29;20220;-67
2022/03/15 01:40:36;;;;;;;;;;;;;;;;;;;;;
2022/03/15 01:43:08;;;;;;;6.13;1.10;;;28.50;99.90;;;;;;4916080;29;20197;-67
2022/03/15 01:45:43;;;;;;;4.50;1.10;;;29.00;99.90;;;;;;4916976;29;20197;-66
2022/03/15 01:48:12;;;;;;;4.47;0.70;;;29.30;99.90;;;;;;4917003;29;20239;-67
2022/03/15 01:50:44;;;;;;;7.73;1.07;;;29.60;99.90;;;;;;4917064;29;20177;-67
2022/03/15 01:53:17;;;;;;;8.30;1.23;;;30.10;99.90;;;;;;4916735;29;20201;-67
2022/03/15 01:55:49;;;;;;;6.43;1.00;;;30.70;99.90;;;;;;4916902;29;20193;-67
2022/03/15 01:58:21;;;;;;;7.83;0.90;;;30.70;99.90;;;;;;4915506;29;20596;-67
2022/03/15 02:00:49;;;;;;;3.70;0.87;;;29.00;99.90;;;;;;4916582;29;20316;-66
2022/03/15 02:03:17;;;;;;;4.55;0.65;;;29.10;99.90;;;;;;4916901;29;20547;-67
2022/03/15 02:05:44;;;;;;;7.57;1.52;;;29.80;99.90;;;;;;4914901;29;20194;-66
2022/03/15 02:08:14;;;;;;;3.70;0.97;;;30.10;99.90;;;;;;4907996;29;20213;-66
2022/03/15 02:10:42;;;;;;;5.80;1.27;;;30.10;99.90;;;;;;4914880;29;20177;-68
2022/03/15 02:13:11;;;;;;;4.13;0.97;;;29.30;99.90;;;;;;4913091;29;20189;-66
2022/03/15 02:15:40;;;;;;;5.43;1.10;;;28.00;99.90;;;;;;4914556;29;20197;-67
2022/03/15 02:18:08;;;;;;;2.43;0.83;;;27.00;99.90;;;;;;4916053;29;20625;-68
2022/03/15 02:20:35;;;;;;;6.80;1.07;;;26.60;99.90;;;;;;4916151;29;20199;-68
2022/03/15 02:23:03;;;;;;;7.57;1.10;;;27.30;99.90;;;;;;4916629;29;20197;-68
2022/03/15 02:25:30;;;;;;;10.73;0.90;;;27.90;99.90;;;;;;4916473;29;20643;-68
2022/03/15 02:27:57;;;;;;;5.23;0.90;;;27.70;99.90;;;;;;4915453;29;20302;-68
2022/03/15 02:30:25;;;;;;;5.27;1.43;;;27.00;99.90;;;;;;4916436;29;20178;-68
2022/03/15 02:32:53;;;;;;;6.73;1.30;;;26.70;99.90;;;;;;4916195;29;20216;-68
2022/03/15 02:35:20;;;;;;;9.93;1.40;;;27.80;99.90;;;;;;4915053;29;20723;-68
2022/03/15 02:37:48;;;;;;;9.10;1.23;;;28.80;99.90;;;;;;4915484;29;20236;-68
2022/03/15 02:40:15;;;;;;;4.43;1.00;;;29.20;99.90;;;;;;4915842;29;20253;-68
2022/03/15 02:42:43;;;;;;;5.13;1.43;;;28.40;99.90;;;;;;4915725;29;20561;-68
2022/03/15 02:45:11;;;;;;;6.43;1.10;;;27.70;99.90;;;;;;4915277;29;20278;-70
2022/03/15 02:47:40;;;;;;;8.37;1.53;;;27.80;99.90;;;;;;4915293;29;20213;-68
2022/03/15 02:50:07;;;;;;;3.67;0.90;;;28.60;99.90;;;;;;4908776;29;20188;-67
2022/03/15 02:52:35;;;;;;;9.70;1.17;;;29.10;99.90;;;;;;4915947;29;20183;-67
2022/03/15 02:55:02;;;;;;;5.50;1.00;;;28.10;99.90;;;;;;4932692;29;20196;-67
2022/03/15 02:57:30;;;;;;;5.03;1.00;;;28.00;99.90;;;;;;4924007;29;20193;-67
2022/03/15 02:59:57;;;;;;;9.50;0.90;;;27.50;99.90;;;;;;4915695;29;20200;-67
2022/03/15 03:02:24;;;;;;;7.60;1.17;;;27.30;99.90;;;;;;4915673;29;20236;-67
2022/03/15 03:04:52;;;;;;;4.93;1.20;;;26.70;99.90;;;;;;4913200;29;20277;-67
2022/03/15 03:07:19;;;;;;;6.77;1.30;;;26.50;99.90;;;;;;4915633;29;20217;-67
2022/03/15 03:09:47;;;;;;;7.73;1.37;;;26.60;99.90;;;;;;4913213;29;20529;-67
2022/03/15 03:12:16;;;;;;;8.07;1.20;;;26.80;99.90;;;;;;4915332;29;20185;-68
2022/03/15 03:14:46;;;;;;;3.80;0.83;;;26.50;99.90;;;;;;4910182;29;20288;-67
2022/03/15 03:17:14;;;;;;;5.60;0.93;;;26.30;99.90;;;;;;4915501;29;20241;-67
2022/03/15 03:19:42;;;;;;;5.53;1.20;;;26.40;99.90;;;;;;4915416;29;20232;-68
2022/03/15 03:22:09;;;;;;;4.93;1.07;;;26.10;99.90;;;;;;4915880;29;20179;-67
2022/03/15 03:24:36;;;;;;;8.90;1.40;;;26.00;99.90;;;;;;4919158;29;20656;-67
2022/03/15 03:27:04;;;;;;;5.00;1.23;;;27.00;99.90;;;;;;4916767;29;20204;-67
2022/03/15 03:29:32;;;;;;;4.37;1.00;;;27.50;99.90;;;;;;4918910;29;20181;-68
2022/03/15 03:31:59;;;;;;;6.67;1.07;;;27.60;99.90;;;;;;4919535;29;20203;-67
2022/03/15 03:34:26;;;;;;;4.53;1.00;;;28.00;99.90;;;;;;4919134;29;20284;-68
2022/03/15 03:36:54;;;;;;;14.50;1.60;;;28.50;99.90;;;;;;4919157;29;20197;-68
2022/03/15 03:39:21;;;;;;;9.30;1.40;;;28.90;99.90;;;;;;4919357;29;20204;-68
2022/03/15 03:41:48;;;;;;;5.83;1.10;;;28.60;99.90;;;;;;4919238;29;20197;-68
2022/03/15 03:44:16;;;;;;;8.67;1.07;;;28.60;99.90;;;;;;4919150;29;20177;-68
2022/03/15 03:46:43;;;;;;;6.50;1.23;;;29.00;99.90;;;;;;4919021;29;20196;-67
2022/03/15 03:49:10;;;;;;;3.90;1.00;;;28.60;99.90;;;;;;4919069;29;20256;-66
2022/03/15 03:51:38;;;;;;;5.00;1.10;;;28.50;99.90;;;;;;4917419;29;20190;-68
2022/03/15 03:54:05;;;;;;;9.03;1.07;;;28.00;99.90;;;;;;4918855;29;20530;-67
2022/03/15 03:56:33;;;;;;;6.13;1.03;;;27.70;99.90;;;;;;4918575;29;20181;-67
2022/03/15 03:59:01;;;;;;;4.27;1.10;;;27.40;99.90;;;;;;4919004;29;20180;-67
2022/03/15 04:01:28;;;;;;;6.73;1.23;;;28.00;99.90;;;;;;4918546;29;20612;-67
2022/03/15 04:04:05;;;;;;;6.47;1.30;;;27.20;99.90;;;;;;4918848;29;20177;-67
2022/03/15 04:06:33;;;;;;;5.90;1.17;;;26.90;99.90;;;;;;4915037;29;20184;-68
2022/03/15 04:09:01;;;;;;;5.67;0.90;;;27.60;99.90;;;;;;4917645;29;20181;-67
2022/03/15 04:11:31;;;;;;;7.93;1.23;;;28.50;99.90;;;;;;4918831;29;20182;-67
2022/03/15 04:13:59;;;;;;;8.13;1.07;;;28.70;99.90;;;;;;4900110;29;20267;-67
2022/03/15 04:16:27;;;;;;;6.90;1.07;;;29.00;99.90;;;;;;4917048;29;20271;-67
2022/03/15 04:18:55;;;;;;;9.17;1.27;;;28.30;99.90;;;;;;4918826;29;20772;-67
2022/03/15 04:21:25;;;;;;;6.67;1.20;;;28.00;99.90;;;;;;4918061;29;20313;-66
2022/03/15 04:23:54;;;;;;;6.23;1.07;;;27.80;99.90;;;;;;4907417;29;20650;-67
2022/03/15 04:26:22;;;;;;;4.23;1.20;;;27.50;99.90;;;;;;4918061;29;20193;-67
2022/03/15 04:28:50;;;;;;;7.60;1.57;;;27.30;99.90;;;;;;4917240;29;20596;-67
2022/03/15 04:31:18;;;;;;;4.57;1.00;;;27.30;99.90;;;;;;4918384;29;20189;-68
2022/03/15 04:33:46;;;;;;;8.50;1.20;;;26.80;99.90;;;;;;4917288;29;20204;-67
2022/03/15 04:36:14;;;;;;;6.10;1.00;;;26.70;99.90;;;;;;4917646;29;20245;-67
2022/03/15 04:38:41;;;;;;;6.03;0.83;;;26.80;99.90;;;;;;4917540;29;20200;-67
2022/03/15 04:41:11;;;;;;;5.73;1.10;;;27.00;99.90;;;;;;4918224;29;20272;-68
2022/03/15 04:43:38;;;;;;;6.53;1.20;;;27.20;99.90;;;;;;4918446;29;20300;-67
2022/03/15 04:46:06;;;;;;;4.73;1.00;;;27.30;99.90;;;;;;4917998;29;20666;-67
2022/03/15 04:48:34;;;;;;;4.40;1.10;;;27.20;99.90;;;;;;4918036;29;20260;-67
2022/03/15 04:51:01;;;;;;;5.53;1.10;;;26.90;99.90;;;;;;4918063;29;20635;-68
2022/03/15 04:53:28;;;;;;;5.70;1.33;;;27.10;99.90;;;;;;4918108;29;20177;-67
2022/03/15 04:55:56;;;;;;;18.33;1.50;;;27.40;99.90;;;;;;4917617;29;20174;-66
2022/03/15 04:58:25;;;;;;;6.30;1.10;;;27.60;99.90;;;;;;4917347;29;20272;-68
2022/03/15 05:00:53;;;;;;;5.33;1.10;;;27.40;99.90;;;;;;4915841;29;20228;-68
2022/03/15 05:03:20;;;;;;;9.27;1.43;;;27.10;99.90;;;;;;4917715;29;20192;-68
2022/03/15 05:05:47;;;;;;;9.43;1.53;;;26.50;99.90;;;;;;4916583;29;20185;-67
2022/03/15 05:08:15;;;;;;;4.63;1.20;;;26.30;99.90;;;;;;4917166;29;20220;-68
2022/03/15 05:13:27;;;;;;;5.93;1.67;;;26.30;99.90;;;;;;4917393;29;20703;-67
2022/03/15 05:15:55;;;;;;;6.70;1.20;;;26.60;99.90;;;;;;4917302;29;20632;-68
2022/03/15 05:18:23;;;;;;;5.23;1.00;;;26.80;99.90;;;;;;4916898;29;20203;-68
2022/03/15 05:20:50;;;;;;;7.93;1.30;;;26.50;99.90;;;;;;4917477;29;20264;-67
2022/03/15 05:23:17;;;;;;;4.90;1.17;;;27.00;99.90;;;;;;4915989;29;20197;-67
2022/03/15 05:25:45;;;;;;;8.00;1.23;;;27.20;99.90;;;;;;4917518;29;20209;-67
2022/03/15 05:28:12;;;;;;;8.33;1.50;;;27.30;99.90;;;;;;4916720;29;20217;-69
2022/03/15 05:30:40;;;;;;;3.73;0.70;;;27.50;99.90;;;;;;4917383;29;20177;-67
2022/03/15 05:33:07;;;;;;;5.63;1.00;;;27.30;99.90;;;;;;4917183;29;20550;-69
2022/03/15 05:35:35;;;;;;;6.27;1.13;;;27.30;99.90;;;;;;4916978;29;20177;-68
2022/03/15 05:38:02;;;;;;;5.30;0.97;;;27.40;99.90;;;;;;4916988;29;20212;-66
2022/03/15 05:40:31;;;;;;;5.60;1.10;;;27.50;99.90;;;;;;4915753;29;20197;-66
2022/03/15 05:42:58;;;;;;;8.20;1.00;;;26.80;99.90;;;;;;4917159;29;20276;-68
2022/03/15 05:45:26;;;;;;;7.00;1.10;;;26.60;99.90;;;;;;4917029;29;20268;-68
2022/03/15 05:47:54;;;;;;;5.37;0.97;;;26.50;99.90;;;;;;4916772;29;20209;-68
2022/03/15 05:50:22;;;;;;;9.57;1.53;;;26.30;99.90;;;;;;4916891;29;20178;-68
2022/03/15 05:52:50;;;;;;;6.40;1.47;;;26.10;99.90;;;;;;4916873;29;20251;-68
2022/03/15 05:55:17;;;;;;;4.77;1.33;;;26.10;99.90;;;;;;4916994;29;20183;-67
2022/03/15 05:57:44;;;;;;;7.73;1.37;;;26.20;99.90;;;;;;4916361;29;20193;-68
2022/03/15 06:00:12;;;;;;;6.10;1.50;;;26.40;99.90;;;;;;4916957;29;20182;-68
2022/03/15 06:02:41;;;;;;;10.07;1.60;;;26.50;99.90;;;;;;4916452;29;20233;-67
2022/03/15 06:05:09;;;;;;;10.73;1.57;;;26.70;99.90;;;;;;4914696;29;20577;-69
2022/03/15 06:07:47;;;;;;;6.20;1.20;;;26.60;99.90;;;;;;4916153;29;20362;-68
2022/03/15 06:10:15;;;;;;;7.17;1.10;;;26.50;99.90;;;;;;4915531;29;20181;-67
2022/03/15 06:12:44;;;;;;;3.87;0.80;;;26.40;99.90;;;;;;4915185;29;20244;-67
2022/03/15 06:15:12;;;;;;;7.73;0.93;;;26.30;99.90;;;;;;4916529;29;20261;-68
2022/03/15 06:17:59;;;;;;;7.23;1.30;;;26.10;99.90;;;;;;4916530;29;20189;-67
2022/03/15 06:20:27;;;;;;;14.93;1.30;;;26.00;99.90;;;;;;4915943;29;20609;-67
2022/03/15 06:22:55;;;;;;;3.97;1.30;;;25.90;99.90;;;;;;4915922;29;20189;-67
2022/03/15 06:25:24;;;;;;;6.53;1.30;;;25.70;99.90;;;;;;4916599;29;20321;-70
2022/03/15 06:27:52;;;;;;;10.53;1.03;;;25.40;99.90;;;;;;4916230;29;20259;-69
2022/03/15 06:30:20;;;;;;;5.23;1.27;;;25.30;99.90;;;;;;4914687;29;20177;-67
2022/03/15 06:32:47;;;;;;;8.87;1.53;;;25.60;99.90;;;;;;4915999;29;20677;-68
2022/03/15 06:35:15;;;;;;;7.97;1.50;;;25.80;99.90;;;;;;4916286;29;20643;-68
2022/03/15 06:37:45;;;;;;;11.73;1.60;;;25.70;99.90;;;;;;4915568;29;20181;-70
2022/03/15 06:40:15;;;;;;;10.53;1.20;;;25.60;99.90;;;;;;4915908;29;20190;-69
2022/03/15 06:42:43;;;;;;;5.43;1.30;;;25.40;99.90;;;;;;4916168;29;20228;-66
2022/03/15 06:45:11;;;;;;;5.60;1.23;;;25.30;99.90;;;;;;4916044;29;20190;-68
2022/03/15 06:47:40;;;;;;;11.73;1.60;;;25.10;99.90;;;;;;4915720;29;20292;-66
2022/03/15 06:50:08;;;;;;;8.37;1.77;;;25.00;99.90;;;;;;4915926;29;20197;-67
2022/03/15 06:52:43;;;;;;;8.27;1.37;;;25.00;99.90;;;;;;4915517;29;20526;-67
2022/03/15 06:55:11;;;;;;;6.50;1.03;;;24.90;99.90;;;;;;4915791;29;20203;-67
2022/03/15 06:57:39;;;;;;;11.37;1.70;;;25.00;99.90;;;;;;4915650;29;20537;-68
2022/03/15 07:00:09;;;;;;;7.03;1.50;;;24.80;99.90;;;;;;4915505;29;20184;-67
2022/03/15 07:02:37;;;;;;;11.67;1.33;;;24.80;99.90;;;;;;4915823;29;20331;-68
2022/03/15 07:05:05;;;;;;;3.77;1.20;;;24.50;99.90;;;;;;4915842;29;20232;-67
2022/03/15 07:07:32;;;;;;;10.00;2.07;;;24.40;99.90;;;;;;4915668;29;20795;-69
2022/03/15 07:10:01;;;;;;;8.37;1.73;;;24.40;99.90;;;;;;4915773;29;20176;-66
2022/03/15 07:12:29;;;;;;;10.67;1.70;;;24.50;99.90;;;;;;4915667;29;20556;-67
2022/03/15 07:14:59;;;;;;;10.83;1.93;;;24.60;99.90;;;;;;4914044;29;20185;-68
2022/03/15 07:17:27;;;;;;;8.47;2.17;;;24.50;99.90;;;;;;4915616;29;20264;-69
2022/03/15 07:19:54;;;;;;;13.80;2.27;;;24.20;99.90;;;;;;4915392;29;21037;-68
2022/03/15 07:22:24;;;;;;;9.63;1.70;;;24.00;99.90;;;;;;4914338;29;20264;-67
2022/03/15 07:24:52;;;;;;;5.20;1.10;;;23.80;99.90;;;;;;4915710;29;20268;-68
2022/03/15 07:27:21;;;;;;;7.90;1.50;;;23.80;99.90;;;;;;4915057;29;20245;-67
2022/03/15 07:29:48;;;;;;;7.93;1.50;;;23.60;99.90;;;;;;4915667;29;20272;-68
2022/03/15 07:32:15;;;;;;;7.77;1.40;;;23.50;99.90;;;;;;4915010;29;20267;-68
2022/03/15 07:34:43;;;;;;;7.13;2.10;;;23.40;99.90;;;;;;4915025;29;20280;-68
2022/03/15 07:37:11;;;;;;;4.53;1.23;;;23.30;99.90;;;;;;4915701;29;20655;-68
2022/03/15 07:39:39;;;;;;;5.63;1.53;;;23.20;99.90;;;;;;4915623;29;20247;-65
2022/03/15 07:42:06;;;;;;;7.60;1.30;;;23.20;99.90;;;;;;4915215;29;20188;-67
2022/03/15 07:44:34;;;;;;;12.47;1.97;;;23.20;99.90;;;;;;4915515;29;20186;-67
2022/03/15 07:47:01;;;;;;;7.73;1.50;;;23.10;99.90;;;;;;4915349;29;20311;-67
2022/03/15 07:49:28;;;;;;;7.00;1.10;;;23.00;99.90;;;;;;4914284;29;20263;-67
2022/03/15 07:51:56;;;;;;;4.40;1.17;;;23.00;99.90;;;;;;4915247;29;20548;-67
2022/03/15 07:54:23;;;;;;;10.63;1.97;;;23.00;99.90;;;;;;4914894;29;20194;-67
2022/03/15 07:56:51;;;;;;;4.30;1.33;;;22.80;99.90;;;;;;4914573;29;20267;-67
2022/03/15 07:59:19;;;;;;;6.23;1.43;;;22.80;99.90;;;;;;4914697;29;20204;-66
2022/03/15 08:01:47;;;;;;;9.47;1.60;;;22.80;99.90;;;;;;4912610;29;20233;-68
2022/03/15 08:04:14;;;;;;;5.23;1.27;;;22.70;99.90;;;;;;4915405;29;20201;-66
2022/03/15 08:06:41;;;;;;;11.23;2.10;;;22.60;99.90;;;;;;4915236;29;20188;-66
2022/03/15 08:09:09;;;;;;;8.13;1.77;;;22.60;99.90;;;;;;4916787;29;20184;-67
2022/03/15 08:11:37;;;;;;;8.57;1.43;;;22.50;99.90;;;;;;4918012;29;20572;-68
2022/03/15 08:14:05;;;;;;;5.73;1.20;;;22.40;99.90;;;;;;4918849;29;20220;-68
2022/03/15 08:16:32;;;;;;;8.90;1.37;;;22.30;99.90;;;;;;4918641;29;20181;-68
2022/03/15 08:19:00;;;;;;;10.07;1.80;;;22.30;99.90;;;;;;4918787;29;20223;-67
2022/03/15 08:21:28;;;;;;;11.97;1.60;;;22.20;99.90;;;;;;4918142;29;20275;-67
2022/03/15 08:23:55;;;;;;;8.03;1.77;;;22.20;99.90;;;;;;4918678;29;20273;-68
2022/03/15 08:26:23;;;;;;;9.20;1.83;;;22.20;99.90;;;;;;4918359;29;20805;-68
2022/03/15 08:28:50;;;;;;;8.67;1.60;;;22.10;99.90;;;;;;4918434;29;20226;-67
2022/03/15 08:31:18;;;;;;;10.50;1.50;;;22.10;99.90;;;;;;4918082;29;20191;-67
2022/03/15 08:33:45;;;;;;;7.00;2.13;;;22.00;99.90;;;;;;4918433;29;20185;-67
2022/03/15 08:36:13;;;;;;;6.47;1.33;;;22.00;99.90;;;;;;4917917;29;20605;-68
2022/03/15 08:38:41;;;;;;;6.37;1.30;;;21.90;99.90;;;;;;4917154;29;20189;-67
2022/03/15 08:41:08;;;;;;;9.40;1.60;;;21.90;99.90;;;;;;4918240;29;20264;-68
2022/03/15 08:43:36;;;;;;;6.70;1.53;;;21.80;99.90;;;;;;4918304;29;20711;-68
2022/03/15 08:46:04;;;;;;;8.90;1.83;;;21.80;99.90;;;;;;4918049;29;20185;-68
2022/03/15 08:48:32;;;;;;;6.63;1.60;;;21.70;99.90;;;;;;4916943;29;20757;-68
2022/03/15 08:51:00;;;;;;;9.93;1.47;;;21.70;99.90;;;;;;4918315;29;20217;-68
2022/03/15 08:53:29;;;;;;;8.87;1.83;;;21.60;99.90;;;;;;4918502;29;20181;-68
2022/03/15 08:55:56;;;;;;;9.53;1.90;;;21.60;99.90;;;;;;4917894;29;20239;-67
2022/03/15 08:58:24;;;;;;;9.13;2.00;;;21.50;99.90;;;;;;4919094;29;20189;-68
2022/03/15 09:00:52;;;;;;;10.83;1.57;;;21.50;99.90;;;;;;4919000;29;20228;-68
2022/03/15 09:03:20;;;;;;;7.30;1.57;;;21.40;99.90;;;;;;4919250;29;20280;-67
2022/03/15 09:05:47;;;;;;;11.73;1.93;;;21.40;99.90;;;;;;4917265;29;20189;-68
2022/03/15 09:08:14;;;;;;;11.30;1.60;;;21.30;99.90;;;;;;4918902;29;20612;-68
2022/03/15 09:10:44;;;;;;;8.87;1.43;;;21.20;99.90;;;;;;4918994;29;20181;-67
2022/03/15 09:13:11;;;;;;;7.13;1.60;;;21.10;99.90;;;;;;4917685;29;20558;-67
2022/03/15 09:15:39;;;;;;;8.33;2.00;;;21.00;99.90;;;;;;4918272;29;20590;-67
2022/03/15 09:18:07;;;;;;;10.37;1.67;;;21.00;99.90;;;;;;4918904;29;20185;-67
2022/03/15 09:20:35;;;;;;;9.43;1.43;;;21.00;99.90;;;;;;4918178;29;20190;-68
2022/03/15 09:23:03;;;;;;;8.03;1.90;;;20.90;99.90;;;;;;4917406;29;20615;-68
2022/03/15 09:25:32;;;;;;;9.27;1.53;;;20.90;99.90;;;;;;4918525;29;20200;-68
2022/03/15 09:28:00;;;;;;;8.67;2.03;;;20.90;99.90;;;;;;4918717;29;20213;-68
2022/03/15 09:30:30;;;;;;;7.50;1.30;;;20.80;99.90;;;;;;4918585;29;20178;-68
2022/03/15 09:32:58;;;;;;;9.80;1.87;;;20.70;99.90;;;;;;4918436;29;20185;-68
2022/03/15 09:35:26;;;;;;;9.27;2.13;;;20.70;99.90;;;;;;4917045;29;20260;-68
2022/03/15 09:37:54;;;;;;;8.93;2.53;;;20.70;99.90;;;;;;4918574;29;20249;-68
2022/03/15 09:40:26;;;;;;;10.43;1.80;;;20.70;99.90;;;;;;4918419;29;20659;-68
2022/03/15 09:43:05;;;;;;;8.60;1.50;;;20.60;99.90;;;;;;4918846;29;20595;-68
2022/03/15 09:45:35;;;;;;;12.77;1.83;;;20.60;99.90;;;;;;4918231;29;20190;-67
2022/03/15 09:48:15;;;;;;;11.23;1.83;;;20.60;99.90;;;;;;4918352;29;20245;-67
2022/03/15 09:50:46;;;;;;;14.60;1.73;;;20.50;99.90;;;;;;4918508;29;20169;-68
2022/03/15 09:53:14;;;;;;;8.43;2.00;;;20.40;99.90;;;;;;4916904;29;20192;-68
2022/03/15 09:55:45;;;;;;;12.20;2.10;;;20.50;99.90;;;;;;4917851;29;20218;-67
2022/03/15 09:58:19;;;;;;;10.20;2.33;;;20.50;99.90;;;;;;4918449;29;20527;-68
2022/03/15 10:00:53;;;;;;;17.30;2.53;;;20.60;99.90;;;;;;4918138;29;20232;-69
2022/03/15 10:03:21;;;;;;;10.17;2.23;;;20.70;99.90;;;;;;4917777;29;20256;-68
2022/03/15 10:05:51;;;;;;;8.70;1.73;;;20.80;99.90;;;;;;4917836;29;20285;-68
2022/03/15 10:08:20;;;;;;;7.23;1.43;;;20.80;99.90;;;;;;4917945;29;20216;-68
2022/03/15 10:10:53;;;;;;;8.60;1.67;;;20.80;99.90;;;;;;4917637;29;20536;-68
2022/03/15 10:13:21;;;;;;;8.87;2.07;;;20.80;99.90;;;;;;4917967;29;20177;-68
2022/03/15 10:15:53;;;;;;;11.83;1.97;;;20.80;99.90;;;;;;4917655;29;20200;-69
2022/03/15 10:18:21;;;;;;;5.80;1.50;;;20.90;99.90;;;;;;4918104;29;20697;-69
2022/03/15 10:20:49;;;;;;;13.17;2.13;;;20.90;99.90;;;;;;4917643;29;20196;-69
2022/03/15 10:23:18;;;;;;;14.30;2.00;;;20.90;99.90;;;;;;4917679;29;20177;-69
2022/03/15 10:25:53;;;;;;;11.43;2.00;;;20.90;99.90;;;;;;4917150;29;20177;-69
2022/03/15 10:28:20;;;;;;;9.60;1.73;;;21.00;99.90;;;;;;4917427;29;20552;-68
2022/03/15 10:30:48;;;;;;;10.60;1.83;;;21.00;99.90;;;;;;4917364;29;20178;-68
2022/03/15 10:33:18;;;;;;;7.13;1.87;;;21.00;99.90;;;;;;4916855;29;20525;-68
2022/03/15 10:35:49;;;;;;;9.40;1.60;;;21.00;99.90;;;;;;4917223;29;20698;-66
2022/03/15 10:38:17;;;;;;;8.50;1.50;;;21.00;99.90;;;;;;4916414;29;20181;-68
2022/03/15 10:40:51;;;;;;;7.63;1.50;;;21.10;99.90;;;;;;4917672;29;20266;-67
2022/03/15 10:43:27;;;;;;;10.30;1.60;;;21.00;99.90;;;;;;4917447;29;20177;-67
2022/03/15 10:45:57;;;;;;;12.73;1.90;;;21.00;99.90;;;;;;4917112;29;20198;-68
2022/03/15 10:48:26;;;;;;;9.47;2.00;;;21.10;99.90;;;;;;4917363;29;20679;-68
2022/03/15 10:51:01;;;;;;;7.93;1.40;;;21.10;99.90;;;;;;4917469;29;20185;-67
2022/03/15 10:53:41;;;;;;;7.63;1.47;;;21.10;99.90;;;;;;4917414;29;20271;-67
2022/03/15 10:56:21;;;;;;;10.00;1.70;;;21.10;99.90;;;;;;4917014;29;20250;-67
2022/03/15 10:58:53;;;;;;;6.90;2.03;;;21.00;99.90;;;;;;4915396;29;20655;-67
2022/03/15 11:01:25;;;;;;;6.90;2.03;;;21.00;99.90;;;;;;4916797;29;20276;-68
2022/03/15 11:04:01;;;;;;;8.03;1.50;;;21.00;99.90;;;;;;4917342;29;20204;-68
2022/03/15 11:07:00;;;;;;;11.33;2.17;;;21.00;99.90;;;;;;4916285;29;20187;-68
2022/03/15 11:09:35;;;;;;;12.33;2.10;;;21.00;99.90;;;;;;4913084;29;20244;-68
2022/03/15 11:12:08;;;;;;;10.40;1.83;;;21.00;99.90;;;;;;4916373;29;20176;-68
2022/03/15 11:14:54;;;;;;;5.67;1.73;;;21.00;99.90;;;;;;4916042;29;20184;-68
2022/03/15 11:17:26;;;;;;;7.20;1.67;;;20.90;99.90;;;;;;4910014;29;20229;-68
2022/03/15 11:20:01;;;;;;;6.53;2.03;;;20.90;99.90;;;;;;4915248;29;20189;-67
2022/03/15 11:22:34;;;;;;;9.03;2.23;;;20.80;99.90;;;;;;4916045;29;20196;-68
2022/03/15 11:25:17;;;;;;;11.90;2.07;;;20.80;99.90;;;;;;4900049;29;20340;-68
2022/03/15 11:27:46;;;;;;;6.80;2.00;;;20.70;99.90;;;;;;4916451;29;20282;-68
2022/03/15 11:30:16;;;;;;;10.00;1.60;;;20.50;99.90;;;;;;4916887;29;20565;-68
2022/03/15 11:32:44;;;;;;;7.57;1.40;;;20.50;99.90;;;;;;4916854;29;20177;-68
2022/03/15 11:35:14;;;;;;;10.77;1.40;;;20.60;99.90;;;;;;4915680;29;20188;-68
2022/03/15 11:37:42;;;;;;;6.07;1.30;;;20.50;99.90;;;;;;4916556;29;20188;-67
2022/03/15 11:40:12;;;;;;;6.20;1.17;;;20.50;99.90;;;;;;4916789;29;20578;-68
2022/03/15 11:42:47;;;;;;;4.23;1.30;;;20.50;99.90;;;;;;4916364;29;20192;-68
2022/03/15 11:45:36;;;;;;;5.00;1.27;;;20.50;99.90;;;;;;4920495;29;20253;-68
2022/03/15 11:48:16;;;;;;;6.67;1.20;;;20.50;99.90;;;;;;4920040;29;20698;-68
2022/03/15 11:50:49;;;;;;;3.20;1.00;;;20.40;99.90;;;;;;4920112;29;20327;-67
2022/03/15 11:53:42;;;;;;;6.87;1.10;;;20.40;99.90;;;;;;4919982;29;20678;-68
2022/03/15 11:56:19;;;;;;;7.03;1.23;;;20.40;99.90;;;;;;4920030;29;20205;-68
2022/03/15 11:58:58;;;;;;;5.57;1.07;;;20.40;99.90;;;;;;4920133;29;20233;-68
2022/03/15 12:01:25;;;;;;;3.17;0.97;;;20.40;99.90;;;;;;4919896;29;20233;-68
2022/03/15 12:03:59;;;;;;;5.47;1.27;;;20.30;99.90;;;;;;4920297;29;20665;-68
2022/03/15 12:06:32;;;;;;;2.37;0.60;;;20.20;99.90;;;;;;4919745;29;20192;-68
2022/03/15 12:09:02;;;;;;;8.90;1.10;;;20.20;99.90;;;;;;4920172;29;20213;-68
2022/03/15 12:11:32;;;;;;;4.03;0.90;;;20.20;99.90;;;;;;4920323;29;20178;-68
2022/03/15 12:14:19;;;;;;;5.93;1.10;;;20.10;99.90;;;;;;4919537;29;20193;-68
2022/03/15 12:16:51;;;;;;;4.47;1.20;;;20.20;99.90;;;;;;4919810;29;20214;-67
2022/03/15 12:19:35;;;;;;;7.50;1.40;;;20.20;99.90;;;;;;4918834;29;20199;-69
2022/03/15 12:22:09;;;;;;;2.30;1.00;;;20.10;99.90;;;;;;4918856;29;20198;-68
2022/03/15 12:24:46;;;;;;;4.27;0.93;;;20.10;99.90;;;;;;4919964;29;20184;-68
2022/03/15 12:27:22;;;;;;;6.30;1.20;;;19.90;99.90;;;;;;4920336;29;20208;-68
2022/03/15 12:30:08;;;;;;;6.80;1.20;;;19.80;99.90;;;;;;4921402;29;20235;-68
2022/03/15 12:32:35;;;;;;;8.23;1.70;;;19.70;99.90;;;;;;4922845;29;20185;-68
2022/03/15 12:35:08;;;;;;;6.77;1.60;;;19.60;99.90;;;;;;4922914;29;20188;-69
2022/03/15 12:37:37;;;;;;;4.63;1.10;;;19.60;99.90;;;;;;4922312;29;20182;-69
2022/03/15 12:40:09;;;;;;;6.40;1.30;;;19.50;99.90;;;;;;4922154;29;20181;-69
2022/03/15 12:42:40;;;;;;;5.37;1.30;;;19.50;99.90;;;;;;4922656;29;20216;-69
2022/03/15 12:45:12;;;;;;;6.17;1.50;;;19.60;99.90;;;;;;4920103;29;20181;-69
2022/03/15 12:47:43;;;;;;;5.80;1.70;;;19.60;99.90;;;;;;4919501;29;20209;-70
2022/03/15 12:50:21;;;;;;;7.67;1.50;;;19.50;99.90;;;;;;4919399;29;20179;-67
2022/03/15 12:53:07;;;;;;;4.07;1.17;;;19.60;99.90;;;;;;4919630;29;20643;-69
2022/03/15 12:55:41;;;;;;;5.47;1.60;;;19.60;99.90;;;;;;4918805;29;20199;-68
2022/03/15 12:58:14;;;;;;;7.00;1.20;;;19.60;99.90;;;;;;4918203;29;20185;-69
2022/03/15 13:00:43;;;;;;;8.33;1.70;;;19.50;99.90;;;;;;4920700;29;20682;-70